Time;durP1;ratioP1;P1;durP2;ratioP2;P2;SDS_P1;SDS_P2;PMS_P1;PMS_P2;Temp;Humidity;BMP_temperature;BMP_pressure;BME280_temperature;BME280_humidity;BME280_pressure;Samples;Min_cycle;Max_cycle;Signal;HPM_P1;HPM_P2
2021/10/27 00:01:44;;;;;;;0.60;0.30;;;12.90;99.90;;;;;;6300185;22;20019;-78
2021/10/27 00:04:11;;;;;;;0.10;0.10;;;12.80;99.90;;;;;;6300369;22;20458;-79
2021/10/27 00:06:38;;;;;;;0.00;0.00;;;12.90;99.90;;;;;;6275058;22;20015;-79
2021/10/27 00:09:05;;;;;;;0.00;0.00;;;12.90;99.90;;;;;;6250472;22;20382;-79
2021/10/27 00:11:32;;;;;;;0.00;0.00;;;12.90;99.90;;;;;;6300140;22;20026;-79
2021/10/27 00:14:00;;;;;;;0.10;0.10;;;12.90;99.90;;;;;;6275432;22;20023;-79
2021/10/27 00:16:28;;;;;;;0.00;0.00;;;12.90;99.90;;;;;;6325748;22;20448;-79
2021/10/27 00:18:55;;;;;;;0.00;0.00;;;12.90;99.90;;;;;;6299851;22;20344;-79
2021/10/27 00:21:22;;;;;;;0.10;0.10;;;12.90;99.90;;;;;;6298722;22;20027;-79
2021/10/27 00:23:49;;;;;;;0.00;0.00;;;12.90;99.90;;;;;;6298195;22;20015;-78
2021/10/27 00:26:16;;;;;;;0.00;0.00;;;12.90;99.90;;;;;;6248413;22;20034;-79
2021/10/27 00:28:42;;;;;;;0.10;0.10;;;13.00;99.90;;;;;;6272735;22;20456;-79
2021/10/27 00:31:09;;;;;;;0.00;0.00;;;12.90;99.90;;;;;;6248256;22;20114;-79
2021/10/27 00:33:37;;;;;;;0.10;0.10;;;12.90;99.90;;;;;;6247876;22;20455;-79
2021/10/27 00:36:07;;;;;;;0.00;0.00;;;13.00;99.90;;;;;;6274272;22;20057;-79
2021/10/27 00:38:34;;;;;;;0.00;0.00;;;13.00;99.90;;;;;;6298623;22;20474;-79
2021/10/27 00:41:01;;;;;;;0.00;0.00;;;13.00;99.90;;;;;;6298914;22;20712;-79
2021/10/27 00:43:28;;;;;;;0.10;0.10;;;12.90;99.90;;;;;;6298768;22;20015;-79
2021/10/27 00:45:55;;;;;;;0.10;0.10;;;13.00;99.90;;;;;;6248104;22;20483;-79
2021/10/27 00:48:22;;;;;;;0.13;0.10;;;12.90;99.90;;;;;;6273349;22;20011;-79
2021/10/27 00:50:49;;;;;;;0.03;0.03;;;12.90;99.90;;;;;;6272705;22;20100;-79
2021/10/27 00:53:16;;;;;;;0.00;0.00;;;12.90;99.90;;;;;;6273453;22;20466;-79
2021/10/27 00:55:42;;;;;;;0.00;0.00;;;13.00;99.90;;;;;;6272837;22;20012;-79
2021/10/27 00:58:10;;;;;;;0.00;0.00;;;13.00;99.90;;;;;;6298503;22;20015;-78
2021/10/27 01:00:36;;;;;;;0.00;0.00;;;13.00;99.90;;;;;;6247632;22;20034;-79
2021/10/27 01:03:03;;;;;;;0.00;0.00;;;13.00;99.90;;;;;;6273431;22;20051;-79
2021/10/27 01:05:30;;;;;;;0.00;0.00;;;13.00;99.90;;;;;;6298171;22;20022;-79
2021/10/27 01:07:57;;;;;;;0.00;0.00;;;13.00;99.90;;;;;;6272586;22;20022;-79
2021/10/27 01:10:24;;;;;;;0.00;0.00;;;13.00;99.90;;;;;;6298453;22;20105;-79
2021/10/27 01:12:51;;;;;;;0.00;0.00;;;13.00;99.90;;;;;;6298173;22;20019;-79
2021/10/27 01:15:18;;;;;;;0.00;0.00;;;13.00;99.90;;;;;;6297972;22;20085;-79
2021/10/27 01:17:45;;;;;;;0.20;0.15;;;13.00;99.90;;;;;;6298067;22;20395;-79
2021/10/27 01:20:13;;;;;;;0.00;0.00;;;13.10;99.90;;;;;;6248170;22;20023;-79
2021/10/27 01:22:40;;;;;;;0.00;0.00;;;13.00;99.90;;;;;;6297882;22;20023;-79
2021/10/27 01:25:11;;;;;;;0.15;0.10;;;13.10;99.90;;;;;;6297850;22;20344;-79
2021/10/27 01:27:45;;;;;;;0.00;0.00;;;13.10;99.90;;;;;;6323374;22;20015;-79
2021/10/27 01:30:17;;;;;;;0.10;0.10;;;13.00;99.90;;;;;;6298256;22;20015;-79
2021/10/27 01:32:46;;;;;;;9.63;0.20;;;13.10;99.90;;;;;;6297721;22;20402;-79
2021/10/27 01:35:13;;;;;;;0.35;0.22;;;13.10;99.90;;;;;;6272787;22;20046;-79
2021/10/27 01:37:41;;;;;;;0.10;0.10;;;13.10;99.90;;;;;;6297812;22;20038;-79
2021/10/27 01:40:12;;;;;;;0.00;0.00;;;13.10;99.90;;;;;;6298222;22;20370;-79
2021/10/27 01:42:39;;;;;;;0.00;0.00;;;13.10;99.90;;;;;;6297710;22;20023;-79
2021/10/27 01:45:08;;;;;;;0.00;0.00;;;13.10;99.90;;;;;;6297705;22;20019;-79
2021/10/27 01:47:35;;;;;;;0.00;0.00;;;13.10;99.90;;;;;;6297410;22;20444;-79
2021/10/27 01:50:02;;;;;;;0.30;0.10;;;13.10;99.90;;;;;;6272447;22;20049;-79
2021/10/27 01:52:29;;;;;;;0.13;0.10;;;13.10;99.90;;;;;;6298029;22;20423;-79
2021/10/27 01:54:56;;;;;;;0.13;0.13;;;13.10;99.90;;;;;;6323419;22;20089;-79
2021/10/27 01:57:22;;;;;;;0.00;0.00;;;13.10;99.90;;;;;;6247479;22;20112;-79
2021/10/27 01:59:50;;;;;;;0.10;0.10;;;13.10;99.90;;;;;;6247234;22;20108;-79
2021/10/27 02:02:16;;;;;;;0.10;0.10;;;13.10;99.90;;;;;;6272682;22;20019;-79
2021/10/27 02:04:43;;;;;;;0.00;0.00;;;13.00;99.90;;;;;;6247727;22;20015;-79
2021/10/27 02:07:10;;;;;;;0.00;0.00;;;13.10;99.90;;;;;;6297187;22;20050;-78
2021/10/27 02:09:37;;;;;;;0.40;0.05;;;13.10;99.90;;;;;;6297427;22;20069;-79
2021/10/27 02:12:05;;;;;;;0.20;0.15;;;13.00;99.90;;;;;;6297124;22;20030;-79
2021/10/27 02:14:33;;;;;;;0.03;0.03;;;13.10;99.90;;;;;;6272130;22;20015;-78
2021/10/27 02:17:00;;;;;;;0.00;0.00;;;13.10;99.90;;;;;;6297188;22;20068;-79
2021/10/27 02:19:26;;;;;;;0.20;0.20;;;13.10;99.90;;;;;;6272233;22;20444;-79
2021/10/27 02:21:53;;;;;;;0.10;0.10;;;13.10;99.90;;;;;;6296847;22;20370;-79
2021/10/27 02:24:20;;;;;;;0.20;0.17;;;13.10;99.90;;;;;;6297640;22;20015;-79
2021/10/27 02:26:47;;;;;;;0.00;0.00;;;13.10;99.90;;;;;;6247111;22;20015;-79
2021/10/27 02:29:14;;;;;;;0.00;0.00;;;13.20;99.90;;;;;;6272353;22;20054;-79
2021/10/27 02:31:41;;;;;;;0.22;0.20;;;13.20;99.90;;;;;;6323319;22;20069;-79
2021/10/27 02:34:07;;;;;;;0.00;0.00;;;13.10;99.90;;;;;;6297387;22;20062;-79
2021/10/27 02:36:34;;;;;;;0.73;0.25;;;13.20;99.90;;;;;;6297718;22;20018;-79
2021/10/27 02:39:01;;;;;;;0.00;0.00;;;13.20;99.90;;;;;;6297223;22;20026;-79
2021/10/27 02:41:28;;;;;;;0.25;0.20;;;13.20;99.90;;;;;;6272406;22;20110;-79
2021/10/27 02:43:54;;;;;;;0.00;0.00;;;13.20;99.90;;;;;;6271688;22;20313;-79
2021/10/27 02:46:21;;;;;;;0.13;0.13;;;13.20;99.90;;;;;;6322425;22;20015;-79
2021/10/27 02:48:48;;;;;;;0.00;0.00;;;13.20;99.90;;;;;;6297145;22;20023;-79
2021/10/27 02:51:16;;;;;;;0.20;0.10;;;13.10;99.90;;;;;;6246575;22;20019;-78
2021/10/27 02:53:42;;;;;;;0.17;0.17;;;13.20;99.90;;;;;;6272670;22;20057;-79
2021/10/27 02:56:10;;;;;;;0.28;0.20;;;13.20;99.90;;;;;;6246530;22;20037;-78
2021/10/27 02:58:36;;;;;;;0.00;0.00;;;13.20;99.90;;;;;;6272014;22;20015;-79
2021/10/27 03:01:03;;;;;;;0.00;0.00;;;13.20;99.90;;;;;;6271617;22;20023;-79
2021/10/27 03:03:30;;;;;;;0.13;0.10;;;13.20;99.90;;;;;;6271989;22;20506;-79
2021/10/27 03:05:57;;;;;;;0.00;0.00;;;13.20;99.90;;;;;;6246666;22;20019;-79
2021/10/27 03:08:23;;;;;;;0.20;0.20;;;13.20;99.90;;;;;;6272315;22;20039;-79
2021/10/27 03:10:50;;;;;;;0.10;0.10;;;13.20;99.90;;;;;;6297399;22;20078;-79
2021/10/27 03:13:17;;;;;;;0.28;0.20;;;13.20;99.90;;;;;;6322597;22;20022;-79
2021/10/27 03:15:44;;;;;;;0.00;0.00;;;13.20;99.90;;;;;;6247156;22;20015;-79
2021/10/27 03:18:10;;;;;;;0.22;0.20;;;13.20;99.90;;;;;;6321973;22;20011;-79
2021/10/27 03:20:37;;;;;;;0.00;0.00;;;13.20;99.90;;;;;;6246864;22;20022;-79
2021/10/27 03:23:04;;;;;;;0.05;0.05;;;13.20;99.90;;;;;;6296702;22;20317;-79
2021/10/27 03:25:30;;;;;;;0.25;0.20;;;13.20;99.90;;;;;;6297561;22;20019;-79
2021/10/27 03:27:57;;;;;;;0.00;0.00;;;13.30;99.90;;;;;;6297176;22;20023;-79
2021/10/27 03:30:24;;;;;;;0.10;0.10;;;13.30;99.90;;;;;;6297419;22;20094;-79
2021/10/27 03:32:51;;;;;;;0.00;0.00;;;13.20;99.90;;;;;;6271996;22;20054;-78
2021/10/27 03:35:18;;;;;;;0.05;0.05;;;13.20;99.90;;;;;;6271934;22;20321;-78
2021/10/27 03:37:44;;;;;;;0.10;0.03;;;13.30;99.90;;;;;;6297225;22;20074;-79
2021/10/27 03:40:12;;;;;;;0.00;0.00;;;13.30;99.90;;;;;;6296838;22;20025;-79
2021/10/27 03:42:40;;;;;;;0.00;0.00;;;13.20;99.90;;;;;;6271947;22;20023;-79
2021/10/27 03:45:07;;;;;;;0.10;0.10;;;13.30;99.90;;;;;;6272339;22;20011;-79
2021/10/27 03:47:34;;;;;;;0.05;0.05;;;13.30;99.90;;;;;;6296566;22;20098;-79
2021/10/27 03:50:02;;;;;;;0.03;0.03;;;13.30;99.90;;;;;;6271583;22;20015;-79
2021/10/27 03:52:29;;;;;;;0.00;0.00;;;13.30;99.90;;;;;;6272052;22;20028;-79
2021/10/27 03:54:56;;;;;;;0.08;0.08;;;13.30;99.90;;;;;;6272057;22;20015;-79
2021/10/27 03:57:22;;;;;;;0.00;0.00;;;13.30;99.90;;;;;;6298988;22;20011;-79
2021/10/27 03:59:49;;;;;;;0.10;0.10;;;13.30;99.90;;;;;;6324801;22;20081;-79
2021/10/27 04:02:16;;;;;;;0.05;0.05;;;13.30;99.90;;;;;;6298821;22;20015;-79
2021/10/27 04:04:42;;;;;;;0.10;0.10;;;13.30;99.90;;;;;;6299024;22;20007;-79
2021/10/27 04:07:09;;;;;;;0.00;0.00;;;13.40;99.90;;;;;;6248318;22;20026;-79
2021/10/27 04:09:36;;;;;;;0.10;0.10;;;13.40;99.90;;;;;;6298924;22;20007;-79
2021/10/27 04:12:03;;;;;;;0.00;0.00;;;13.40;99.90;;;;;;6248548;22;20073;-79
2021/10/27 04:14:30;;;;;;;0.00;0.00;;;13.40;99.90;;;;;;6298689;22;20019;-79
2021/10/27 04:16:56;;;;;;;0.10;0.10;;;13.40;99.90;;;;;;6273244;22;20015;-79
2021/10/27 04:19:23;;;;;;;0.10;0.05;;;13.40;99.90;;;;;;6273009;22;20026;-79
2021/10/27 04:21:51;;;;;;;0.03;0.03;;;13.40;99.90;;;;;;6273649;22;20094;-79
2021/10/27 04:24:19;;;;;;;0.00;0.00;;;13.40;99.90;;;;;;6298932;22;20065;-79
2021/10/27 04:26:45;;;;;;;0.00;0.00;;;13.40;99.90;;;;;;6324142;22;20019;-79
2021/10/27 04:29:12;;;;;;;0.00;0.00;;;13.40;99.90;;;;;;6298389;22;20434;-79
2021/10/27 04:31:39;;;;;;;0.00;0.00;;;13.40;99.90;;;;;;6273538;22;20444;-79
2021/10/27 04:34:06;;;;;;;0.10;0.10;;;13.40;99.90;;;;;;6273136;22;20452;-79
2021/10/27 04:36:33;;;;;;;0.00;0.00;;;13.40;99.90;;;;;;6248724;22;20065;-78
2021/10/27 04:39:00;;;;;;;0.10;0.10;;;13.40;99.90;;;;;;6248701;22;20023;-79
2021/10/27 04:41:26;;;;;;;0.00;0.00;;;13.40;99.90;;;;;;6273035;22;20073;-79
2021/10/27 04:43:53;;;;;;;0.00;0.00;;;13.40;99.90;;;;;;6324011;22;20011;-79
2021/10/27 04:46:20;;;;;;;0.00;0.00;;;13.40;99.90;;;;;;6298048;22;20356;-79
2021/10/27 04:48:46;;;;;;;0.00;0.00;;;13.40;99.90;;;;;;6273540;22;20011;-79
2021/10/27 04:51:13;;;;;;;0.10;0.10;;;13.40;99.90;;;;;;6297976;22;20408;-79
2021/10/27 04:53:40;;;;;;;0.00;0.00;;;13.40;99.90;;;;;;6298413;22;20015;-79
2021/10/27 04:56:06;;;;;;;0.00;0.00;;;13.40;99.90;;;;;;6298113;22;20015;-79
2021/10/27 04:58:33;;;;;;;0.10;0.10;;;13.40;99.90;;;;;;6298543;22;20094;-79
2021/10/27 05:01:00;;;;;;;0.00;0.00;;;13.40;99.90;;;;;;6248112;22;20019;-79
2021/10/27 05:03:27;;;;;;;0.00;0.00;;;13.40;99.90;;;;;;6247963;22;20022;-78
2021/10/27 05:05:56;;;;;;;0.00;0.00;;;13.40;99.90;;;;;;6248117;22;20015;-79
2021/10/27 05:08:23;;;;;;;0.05;0.03;;;13.40;99.90;;;;;;6272683;22;20343;-79
2021/10/27 05:10:51;;;;;;;0.00;0.00;;;13.40;99.90;;;;;;6298386;22;20094;-78
2021/10/27 05:13:21;;;;;;;0.00;0.00;;;13.40;99.90;;;;;;6297721;22;20018;-79
2021/10/27 05:15:49;;;;;;;0.00;0.00;;;13.40;99.90;;;;;;6274268;22;20451;-79
2021/10/27 05:18:16;;;;;;;0.08;0.08;;;13.40;99.90;;;;;;6297719;22;20081;-79
2021/10/27 05:20:44;;;;;;;0.00;0.00;;;13.40;99.90;;;;;;6248118;22;20016;-79
2021/10/27 05:23:12;;;;;;;0.00;0.00;;;13.40;99.90;;;;;;6298003;22;20022;-79
2021/10/27 05:25:39;;;;;;;0.00;0.00;;;13.30;99.90;;;;;;6323696;22;20065;-79
2021/10/27 05:28:06;;;;;;;0.00;0.00;;;13.30;99.90;;;;;;6272904;22;20016;-79
2021/10/27 05:30:33;;;;;;;0.00;0.00;;;13.30;99.90;;;;;;6323505;22;20097;-79
2021/10/27 05:33:00;;;;;;;0.00;0.00;;;13.30;99.90;;;;;;6273428;22;20050;-79
2021/10/27 05:35:28;;;;;;;0.00;0.00;;;13.30;99.90;;;;;;6297293;22;20098;-79
2021/10/27 05:37:55;;;;;;;0.00;0.00;;;13.30;99.90;;;;;;6273015;22;20444;-79
2021/10/27 05:40:24;;;;;;;0.00;0.00;;;13.30;99.90;;;;;;6297707;22;20088;-79
2021/10/27 05:42:51;;;;;;;0.10;0.10;;;13.30;99.90;;;;;;6297944;22;20390;-79
2021/10/27 05:45:21;;;;;;;0.00;0.00;;;13.30;99.90;;;;;;6297931;22;20349;-79
2021/10/27 05:47:52;;;;;;;0.00;0.00;;;13.40;99.90;;;;;;6297717;22;20081;-79
2021/10/27 05:55:34;;;;;;;0.05;0.05;;;13.30;99.90;;;;;;6279758;22;20027;-79
2021/10/27 05:58:05;;;;;;;0.00;0.00;;;13.40;99.90;;;;;;6323245;22;20359;-78
2021/10/27 06:00:33;;;;;;;0.00;0.00;;;13.40;99.90;;;;;;6297459;22;20015;-82
2021/10/27 06:03:01;;;;;;;0.15;0.15;;;13.40;99.90;;;;;;6297748;22;20023;-79
2021/10/27 06:05:28;;;;;;;0.00;0.00;;;13.40;99.90;;;;;;6272422;22;20015;-79
2021/10/27 06:07:55;;;;;;;0.00;0.00;;;13.40;99.90;;;;;;6323362;22;20030;-79
2021/10/27 06:10:22;;;;;;;0.00;0.00;;;13.40;99.90;;;;;;6272288;22;20015;-78
2021/10/27 06:12:52;;;;;;;0.00;0.00;;;13.40;99.90;;;;;;6272338;22;20391;-78
2021/10/27 06:15:21;;;;;;;0.00;0.00;;;13.40;99.90;;;;;;6297616;22;20149;-79
2021/10/27 06:17:47;;;;;;;0.10;0.10;;;13.40;99.90;;;;;;6272530;22;20152;-78
2021/10/27 06:20:14;;;;;;;0.00;0.00;;;13.40;99.90;;;;;;6246847;22;20129;-82
2021/10/27 06:22:43;;;;;;;0.00;0.00;;;13.40;99.90;;;;;;6297576;22;20437;-82
2021/10/27 06:25:11;;;;;;;0.00;0.00;;;13.40;99.90;;;;;;6273020;22;20012;-83
2021/10/27 06:27:42;;;;;;;0.10;0.10;;;13.40;99.90;;;;;;6322713;22;20436;-83
2021/10/27 06:34:05;;;;;;;0.00;0.00;;;13.40;99.90;;;;;;6229276;23;20091;-83
2021/10/27 06:36:13;;;;;;;0.00;0.00;;;13.40;99.90;;;;;;6209226;23;20027;-83
2021/10/27 06:46:57;;;;;;;0.10;0.05;;;13.40;99.90;;;;;;6300813;22;20051;-82
2021/10/27 06:49:24;;;;;;;0.00;0.00;;;13.50;99.90;;;;;;6271494;22;20444;-82
2021/10/27 06:51:50;;;;;;;0.00;0.00;;;13.40;99.90;;;;;;6272235;22;20026;-83
2021/10/27 06:54:17;;;;;;;0.00;0.00;;;13.50;99.90;;;;;;6322810;22;20344;-82
2021/10/27 06:56:44;;;;;;;0.00;0.00;;;13.50;99.90;;;;;;6246775;22;20019;-83
2021/10/27 06:59:14;;;;;;;0.00;0.00;;;13.40;99.90;;;;;;6271992;22;20019;-84
2021/10/27 07:15:20;;;;;;;0.00;0.00;;;13.50;99.90;;;;;;6301163;22;20022;-83
2021/10/27 07:17:50;;;;;;;0.10;0.10;;;13.50;99.90;;;;;;6273415;22;20066;-82
2021/10/27 07:20:16;;;;;;;0.00;0.00;;;13.60;99.90;;;;;;6297074;22;20097;-81
2021/10/27 07:22:44;;;;;;;0.00;0.00;;;13.60;99.90;;;;;;6322219;22;20672;-82
2021/10/27 07:25:11;;;;;;;0.00;0.00;;;13.60;99.90;;;;;;6297188;22;20298;-82
2021/10/27 07:27:38;;;;;;;0.00;0.00;;;13.50;99.90;;;;;;6296627;22;20019;-83
2021/10/27 07:30:05;;;;;;;0.00;0.00;;;13.50;99.90;;;;;;6247007;22;20034;-85
2021/10/27 07:32:32;;;;;;;0.10;0.10;;;13.50;99.90;;;;;;6298712;22;20452;-84
2021/10/27 07:42:56;;;;;;;0.00;0.00;;;13.50;99.90;;;;;;6324801;22;20491;-83
2021/10/27 07:45:25;;;;;;;0.00;0.00;;;13.50;99.90;;;;;;6299289;22;20082;-82
2021/10/27 07:47:53;;;;;;;0.10;0.10;;;13.50;99.90;;;;;;6299003;22;20444;-81
2021/10/27 07:50:22;;;;;;;0.00;0.00;;;13.60;99.90;;;;;;6299571;22;20149;-81
2021/10/27 07:52:49;;;;;;;0.20;0.20;;;13.60;99.90;;;;;;6274085;22;20066;-79
2021/10/27 07:55:16;;;;;;;0.00;0.00;;;13.60;99.90;;;;;;6298617;22;20019;-79
2021/10/27 07:57:43;;;;;;;0.00;0.00;;;13.70;99.90;;;;;;6298601;22;20058;-81
2021/10/27 08:00:11;;;;;;;0.40;0.20;;;13.70;99.90;;;;;;6273772;22;20444;-79
2021/10/27 08:02:39;;;;;;;0.00;0.00;;;13.70;99.90;;;;;;6298823;22;20016;-82
2021/10/27 08:05:06;;;;;;;0.00;0.00;;;13.70;99.90;;;;;;6248977;22;20015;-81
2021/10/27 08:07:42;;;;;;;0.00;0.00;;;13.70;99.90;;;;;;6298774;22;20022;-81
2021/10/27 08:10:09;;;;;;;0.22;0.20;;;13.80;99.90;;;;;;6298695;22;20050;-81
2021/10/27 08:12:35;;;;;;;0.00;0.00;;;13.80;99.90;;;;;;6298202;22;20019;-81
2021/10/27 08:15:03;;;;;;;0.05;0.05;;;13.80;99.90;;;;;;6299029;22;20475;-81
2021/10/27 08:17:30;;;;;;;0.00;0.00;;;13.80;99.90;;;;;;6273473;22;20022;-81
2021/10/27 08:19:56;;;;;;;0.20;0.10;;;13.90;99.90;;;;;;6273527;22;20448;-84
2021/10/27 08:22:24;;;;;;;0.00;0.00;;;13.90;99.90;;;;;;6298833;22;20047;-83
2021/10/27 08:24:52;;;;;;;0.00;0.00;;;13.80;99.90;;;;;;6298766;22;20099;-81
2021/10/27 08:27:20;;;;;;;0.00;0.00;;;13.90;99.90;;;;;;6273833;22;20023;-83
2021/10/27 08:29:47;;;;;;;0.00;0.00;;;13.90;99.90;;;;;;6298731;22;20443;-83
2021/10/27 08:34:53;;;;;;;0.00;0.00;;;13.90;99.90;;;;;;6300675;22;20078;-84
2021/10/27 08:37:22;;;;;;;0.00;0.00;;;13.90;99.90;;;;;;6324153;22;20027;-84
2021/10/27 08:39:55;;;;;;;0.00;0.00;;;13.90;99.90;;;;;;6323757;22;20558;-85
2021/10/27 08:42:22;;;;;;;0.10;0.10;;;13.90;99.90;;;;;;6272946;22;20102;-84
2021/10/27 08:44:49;;;;;;;0.00;0.00;;;14.00;99.90;;;;;;6298438;22;20019;-83
2021/10/27 08:47:16;;;;;;;0.00;0.00;;;14.00;99.90;;;;;;6272686;22;20404;-83
2021/10/27 08:49:44;;;;;;;0.00;0.00;;;14.00;99.90;;;;;;6298476;22;20015;-83
2021/10/27 08:52:13;;;;;;;0.00;0.00;;;13.90;99.90;;;;;;6273081;22;20051;-82
2021/10/27 08:54:40;;;;;;;0.10;0.10;;;13.90;99.90;;;;;;6298077;22;20479;-83
2021/10/27 08:57:09;;;;;;;0.10;0.10;;;13.90;99.90;;;;;;6323975;22;20011;-85
2021/10/27 09:16:29;;;;;;;0.00;0.00;;;14.00;99.90;;;;;;6324006;22;20436;-83
2021/10/27 09:44:01;;;;;;;0.00;0.00;;;14.10;99.90;;;;;;6323136;22;20018;-82
2021/10/27 10:06:41;;;;;;;0.00;0.00;;;14.00;99.90;;;;;;6320562;22;20376;-81
2021/10/27 10:09:08;;;;;;;0.10;0.10;;;14.00;99.90;;;;;;6296655;22;20013;-82
2021/10/27 10:11:36;;;;;;;0.00;0.00;;;14.00;99.90;;;;;;6271915;22;20094;-82
2021/10/27 10:14:06;;;;;;;0.03;0.03;;;14.00;99.90;;;;;;6271408;22;20466;-82
2021/10/27 10:16:40;;;;;;;0.10;0.10;;;13.90;99.90;;;;;;6322338;22;20015;-82
2021/10/27 10:19:13;;;;;;;0.00;0.00;;;13.90;99.90;;;;;;6296608;22;20051;-82
2021/10/27 10:21:42;;;;;;;0.00;0.00;;;14.00;99.90;;;;;;6322318;22;20387;-82
2021/10/27 10:24:29;;;;;;;0.13;0.10;;;14.00;99.90;;;;;;6247171;22;20683;-82
2021/10/27 10:26:59;;;;;;;0.03;0.03;;;14.10;99.90;;;;;;6296698;22;20790;-82
2021/10/27 10:29:39;;;;;;;0.22;0.10;;;14.10;99.90;;;;;;6295901;22;20526;-82
2021/10/27 10:32:22;;;;;;;0.00;0.00;;;14.10;99.90;;;;;;6296893;22;20518;-83
2021/10/27 10:35:01;;;;;;;0.00;0.00;;;14.20;99.90;;;;;;6296122;22;20227;-82
2021/10/27 10:37:28;;;;;;;0.00;0.00;;;14.20;99.90;;;;;;6295655;22;20019;-82
2021/10/27 10:39:56;;;;;;;0.00;0.00;;;14.30;99.90;;;;;;6296623;22;20102;-82
2021/10/27 10:43:52;;;;;;;0.32;0.20;;;14.40;99.90;;;;;;6271814;22;20019;-83
2021/10/27 10:45:52;;;;;;;0.00;0.00;;;14.40;99.90;;;;;;6295566;22;20086;-82
2021/10/27 11:42:01;;;;;;;0.00;0.00;;;15.00;99.90;;;;;;6321709;22;20017;-80
2021/10/27 11:44:52;;;;;;;0.13;0.10;;;14.90;99.90;;;;;;6321615;22;20340;-81
2021/10/27 11:47:35;;;;;;;;;;;14.90;99.90;;;;;;6273931;22;20026;-80
2021/10/27 11:50:03;;;;;;;0.00;0.00;;;14.90;99.90;;;;;;6295908;22;19946;-80
2021/10/27 11:52:38;;;;;;;0.00;0.00;;;14.90;99.90;;;;;;6296576;22;20019;-80
2021/10/27 11:55:11;;;;;;;0.00;0.00;;;14.90;99.90;;;;;;6321804;22;20026;-80
2021/10/27 11:57:39;;;;;;;0.15;0.10;;;14.90;99.90;;;;;;6296160;22;20015;-81
2021/10/27 12:00:09;;;;;;;0.00;0.00;;;14.90;99.90;;;;;;6246277;22;20022;-80
2021/10/27 12:03:06;;;;;;;0.10;0.10;;;15.00;99.90;;;;;;6296115;22;20023;-79
2021/10/27 12:05:43;;;;;;;0.00;0.00;;;15.00;99.90;;;;;;6297628;22;20452;-79
2021/10/27 12:11:04;;;;;;;0.00;0.00;;;14.90;99.90;;;;;;6321799;22;20166;-82
2021/10/27 12:19:24;;;;;;;0.00;0.00;;;14.90;99.90;;;;;;6322881;22;20114;-81
2021/10/27 12:22:03;;;;;;;0.10;0.10;;;14.90;99.90;;;;;;6298114;22;20063;-81
2021/10/27 12:24:36;;;;;;;0.00;0.00;;;14.90;99.90;;;;;;6298125;22;20015;-79
2021/10/27 12:27:33;;;;;;;0.00;0.00;;;14.90;99.90;;;;;;6297266;22;20011;-80
2021/10/27 12:30:06;;;;;;;0.10;0.10;;;14.90;99.90;;;;;;6297067;22;20088;-80
2021/10/27 12:32:34;;;;;;;0.35;0.30;;;14.90;99.90;;;;;;6298162;22;20015;-79
2021/10/27 12:35:08;;;;;;;0.88;0.35;;;14.90;99.90;;;;;;6272373;22;20413;-80
2021/10/27 12:37:46;;;;;;;0.00;0.00;;;14.90;99.90;;;;;;6297582;22;20015;-79
2021/10/27 12:40:27;;;;;;;0.00;0.00;;;14.90;99.90;;;;;;6298046;22;20007;-79
2021/10/27 12:43:19;;;;;;;0.00;0.00;;;15.00;99.90;;;;;;6323186;22;20016;-80
2021/10/27 12:45:48;;;;;;;0.10;0.10;;;15.00;99.90;;;;;;6298377;22;20011;-80
2021/10/27 12:48:21;;;;;;;0.00;0.00;;;15.00;99.90;;;;;;6296934;22;20023;-80
2021/10/27 12:50:59;;;;;;;0.10;0.10;;;15.00;99.90;;;;;;6323937;22;20711;-79
2021/10/27 12:53:47;;;;;;;0.10;0.00;;;15.00;99.90;;;;;;6297893;22;20015;-79
2021/10/27 12:56:20;;;;;;;0.00;0.00;;;15.00;99.90;;;;;;6297187;22;20069;-80
2021/10/27 12:58:59;;;;;;;0.52;0.13;;;14.90;99.90;;;;;;6297742;22;20011;-80
2021/10/27 13:01:36;;;;;;;0.10;0.10;;;14.90;99.90;;;;;;6297947;22;20015;-81
2021/10/27 13:20:11;;;;;;;0.00;0.00;;;14.80;99.90;;;;;;6301648;22;20344;-84
2021/10/27 13:30:49;;;;;;;0.08;0.08;;;14.80;99.90;;;;;;6301543;22;20109;-82
2021/10/27 13:33:18;;;;;;;0.00;0.00;;;14.80;99.90;;;;;;6296723;22;20019;-81
2021/10/27 13:35:45;;;;;;;0.10;0.10;;;14.80;99.90;;;;;;6272705;22;20026;-86
2021/10/27 13:38:13;;;;;;;0.00;0.00;;;14.80;99.90;;;;;;6322558;22;20077;-81
2021/10/27 13:40:43;;;;;;;0.10;0.10;;;14.80;99.90;;;;;;6297187;22;20022;-83
2021/10/27 13:43:16;;;;;;;0.20;0.10;;;14.80;99.90;;;;;;6297076;22;20057;-82
2021/10/27 13:48:57;;;;;;;0.10;0.10;;;14.80;99.90;;;;;;6302721;22;20026;-82
2021/10/27 14:11:23;;;;;;;0.00;0.00;;;14.80;99.90;;;;;;6279239;22;20039;-82
2021/10/27 14:14:00;;;;;;;0.17;0.15;;;14.80;99.90;;;;;;6322789;22;20015;-82
2021/10/27 15:25:31;;;;;;;0.00;0.00;;;14.40;99.90;;;;;;6273656;22;20440;-82
2021/10/27 15:43:58;;;;;;;0.00;0.00;;;14.30;99.90;;;;;;6273654;22;20011;-80
2021/10/27 15:52:28;;;;;;;0.00;0.00;;;14.30;99.90;;;;;;6280265;22;20118;-81
2021/10/27 15:54:52;;;;;;;0.00;0.00;;;14.30;99.90;;;;;;6299200;22;20024;-80
2021/10/27 15:57:19;;;;;;;0.00;0.00;;;14.20;99.90;;;;;;6298094;22;20026;-80
2021/10/27 15:59:46;;;;;;;0.00;0.00;;;14.30;99.90;;;;;;6248808;22;20015;-84
2021/10/27 16:02:13;;;;;;;0.17;0.13;;;14.20;99.90;;;;;;6322833;22;20022;-82
2021/10/27 16:04:40;;;;;;;0.00;0.00;;;14.20;99.90;;;;;;6248324;22;20011;-82
2021/10/27 16:07:08;;;;;;;0.00;0.00;;;14.20;99.90;;;;;;6298879;22;20018;-82
2021/10/27 16:09:44;;;;;;;0.00;0.00;;;14.20;99.90;;;;;;6324186;22;20554;-82
2021/10/27 16:12:12;;;;;;;0.03;0.03;;;14.20;99.90;;;;;;6298598;22;20016;-82
2021/10/27 16:14:40;;;;;;;0.00;0.00;;;14.20;99.90;;;;;;6324603;22;20023;-82
2021/10/27 16:17:07;;;;;;;0.00;0.00;;;14.20;99.90;;;;;;6298005;22;20026;-82
2021/10/27 16:19:34;;;;;;;0.00;0.00;;;14.20;99.90;;;;;;6273553;22;20073;-82
2021/10/27 16:22:02;;;;;;;0.00;0.00;;;14.20;99.90;;;;;;6248713;22;20410;-82
2021/10/27 16:24:29;;;;;;;0.00;0.00;;;14.10;99.90;;;;;;6298040;22;20016;-82
2021/10/27 16:26:57;;;;;;;0.00;0.00;;;14.10;99.90;;;;;;6299170;22;20011;-82
2021/10/27 16:29:24;;;;;;;0.00;0.00;;;14.10;99.90;;;;;;6298562;22;20018;-82
2021/10/27 16:32:15;;;;;;;0.00;0.00;;;14.10;99.90;;;;;;6247513;22;20019;-82
2021/10/27 16:34:43;;;;;;;0.05;0.05;;;14.10;99.90;;;;;;6298649;22;20093;-81
2021/10/27 16:37:10;;;;;;;0.03;0.03;;;14.10;99.90;;;;;;6248794;22;20019;-82
2021/10/27 16:39:37;;;;;;;0.00;0.00;;;14.10;99.90;;;;;;6273528;22;20545;-82
2021/10/27 16:42:04;;;;;;;0.10;0.10;;;14.10;99.90;;;;;;6298956;22;20019;-82
2021/10/27 16:44:31;;;;;;;0.30;0.25;;;14.10;99.90;;;;;;6273329;22;20015;-82
2021/10/27 16:46:58;;;;;;;0.00;0.00;;;14.10;99.90;;;;;;6248049;22;20019;-82
2021/10/27 16:49:24;;;;;;;0.00;0.00;;;14.10;99.90;;;;;;6298408;22;20015;-82
2021/10/27 16:51:51;;;;;;;0.00;0.00;;;14.00;99.90;;;;;;6298409;22;20015;-82
2021/10/27 16:54:19;;;;;;;0.05;0.05;;;14.10;99.90;;;;;;6297292;22;20019;-82
2021/10/27 16:56:47;;;;;;;0.03;0.03;;;14.00;99.90;;;;;;6273413;22;20086;-82
2021/10/27 16:59:13;;;;;;;0.00;0.00;;;14.00;99.90;;;;;;6273370;22;20054;-82
2021/10/27 17:01:43;;;;;;;0.10;0.10;;;14.00;99.90;;;;;;6323859;22;20020;-82
2021/10/27 17:04:10;;;;;;;0.00;0.00;;;13.90;99.90;;;;;;6273535;22;20015;-81
2021/10/27 17:06:36;;;;;;;0.10;0.10;;;13.90;99.90;;;;;;6299145;22;20020;-81
2021/10/27 17:09:04;;;;;;;0.10;0.10;;;13.90;99.90;;;;;;6298382;22;20016;-81
2021/10/27 17:11:31;;;;;;;0.00;0.00;;;13.90;99.90;;;;;;6298074;22;20515;-81
2021/10/27 17:13:57;;;;;;;0.00;0.00;;;13.90;99.90;;;;;;6298563;22;20047;-81
2021/10/27 17:16:24;;;;;;;0.00;0.00;;;13.80;99.90;;;;;;6247458;22;20022;-81
2021/10/27 17:18:51;;;;;;;0.00;0.00;;;13.80;99.90;;;;;;6323391;22;20015;-82
2021/10/27 17:21:18;;;;;;;0.00;0.00;;;13.80;99.90;;;;;;6297915;22;20078;-83
2021/10/27 17:23:48;;;;;;;0.10;0.10;;;13.80;99.90;;;;;;6297900;22;20015;-81
2021/10/27 17:26:15;;;;;;;0.00;0.00;;;13.80;99.90;;;;;;6274225;22;20340;-82
2021/10/27 17:28:41;;;;;;;0.00;0.00;;;13.80;99.90;;;;;;6248310;22;20015;-82
2021/10/27 17:31:08;;;;;;;0.08;0.08;;;13.70;99.90;;;;;;6272902;22;20015;-82
2021/10/27 17:33:35;;;;;;;0.00;0.00;;;13.70;99.90;;;;;;6248064;22;20340;-81
2021/10/27 17:36:02;;;;;;;0.10;0.10;;;13.70;99.90;;;;;;6297790;22;20066;-82
2021/10/27 17:38:30;;;;;;;0.00;0.00;;;13.70;99.90;;;;;;6297937;22;20038;-82
2021/10/27 17:40:57;;;;;;;0.00;0.00;;;13.70;99.90;;;;;;6323714;22;20011;-82
2021/10/27 17:43:25;;;;;;;0.00;0.00;;;13.60;99.90;;;;;;6297953;22;20026;-82
2021/10/27 17:45:52;;;;;;;0.08;0.08;;;13.60;99.90;;;;;;6297749;22;20443;-81
2021/10/27 17:51:25;;;;;;;0.00;0.00;;;13.60;99.90;;;;;;6323852;22;20015;-82
2021/10/27 17:59:12;;;;;;;0.00;0.00;;;13.50;99.90;;;;;;6323442;22;20019;-82
2021/10/27 18:01:40;;;;;;;0.00;0.00;;;13.40;99.90;;;;;;6247690;22;20031;-82
2021/10/27 18:04:07;;;;;;;0.00;0.00;;;13.40;99.90;;;;;;6323873;22;20015;-82
2021/10/27 18:06:36;;;;;;;0.00;0.00;;;13.40;99.90;;;;;;6297457;22;20336;-82
2021/10/27 18:09:13;;;;;;;0.10;0.10;;;13.40;99.90;;;;;;6273791;22;20011;-83